Time;durP1;ratioP1;P1;durP2;ratioP2;P2;SDS_P1;SDS_P2;PMS_P1;PMS_P2;Temp;Humidity;BMP_temperature;BMP_pressure;BME280_temperature;BME280_humidity;BME280_pressure;Samples;Min_cycle;Max_cycle;Signal;HPM_P1;HPM_P2
2023/10/08 00:00:49;;;;;;;13.27;5.18;;;;;;;15.75;84.38;102226.16;5043661;28;20353;-49
2023/10/08 00:03:16;;;;;;;11.70;5.53;;;;;;;15.72;84.21;102232.59;5039637;28;20068;-47
2023/10/08 00:05:42;;;;;;;11.73;4.78;;;;;;;15.69;84.09;102236.38;5042906;28;20029;-47
2023/10/08 00:08:12;;;;;;;11.32;5.18;;;;;;;15.68;84.72;102242.69;5041085;28;20395;-47
2023/10/08 00:10:41;;;;;;;11.60;5.28;;;;;;;15.65;85.24;102253.63;5044130;28;20041;-47
2023/10/08 00:13:09;;;;;;;10.07;5.10;;;;;;;15.64;85.34;102243.06;5040286;28;20113;-46
2023/10/08 00:15:44;;;;;;;13.63;5.63;;;;;;;15.61;85.16;102238.78;5042800;28;20104;-47
2023/10/08 00:18:11;;;;;;;15.32;5.03;;;;;;;15.57;84.73;102240.00;5042457;28;20033;-47
2023/10/08 00:23:22;;;;;;;10.40;5.00;;;;;;;15.51;85.17;102245.81;5043524;28;20048;-50
2023/10/08 00:25:50;;;;;;;10.48;5.40;;;;;;;15.48;84.96;102254.91;5040355;28;20018;-47
2023/10/08 00:28:17;;;;;;;9.77;4.90;;;;;;;15.45;85.75;102255.13;5044772;28;20364;-47
2023/10/08 00:30:43;;;;;;;12.13;5.47;;;;;;;15.42;85.03;102255.41;5042363;28;20036;-47
2023/10/08 00:33:09;;;;;;;10.32;5.13;;;;;;;15.39;85.30;102252.06;5043037;28;20030;-47
2023/10/08 00:35:39;;;;;;;12.38;5.40;;;;;;;15.34;85.32;102255.97;5041342;28;20108;-47
2023/10/08 00:38:14;;;;;;;8.98;5.07;;;;;;;15.29;86.16;102254.59;5044963;28;20029;-47
2023/10/08 00:40:40;;;;;;;11.73;4.90;;;;;;;15.28;86.20;102251.06;5041301;28;20025;-47
2023/10/08 00:43:10;;;;;;;11.80;5.18;;;;;;;15.24;86.34;102251.38;5042867;28;20044;-47
2023/10/08 00:45:42;;;;;;;9.93;5.18;;;;;;;15.22;86.77;102250.66;5036120;28;20067;-47
2023/10/08 00:48:09;;;;;;;11.50;5.20;;;;;;;15.18;86.97;102271.44;5043503;28;20027;-48
2023/10/08 00:50:42;;;;;;;10.30;5.22;;;;;;;15.14;87.04;102260.09;5040595;28;20494;-47
2023/10/08 00:53:17;;;;;;;14.55;5.53;;;;;;;15.08;88.34;102263.22;5039903;28;20036;-48
2023/10/08 00:55:50;;;;;;;9.57;5.30;;;;;;;15.07;88.32;102271.38;5040293;28;20044;-47
2023/10/08 00:58:23;;;;;;;13.23;5.70;;;;;;;15.02;88.87;102262.81;5041123;28;20479;-46
2023/10/08 01:00:52;;;;;;;8.80;4.97;;;;;;;14.96;89.10;102262.31;5043356;28;20037;-47
2023/10/08 01:03:19;;;;;;;10.63;5.15;;;;;;;14.97;88.87;102265.81;5037912;28;20076;-48
2023/10/08 01:05:48;;;;;;;8.30;5.00;;;;;;;14.89;89.43;102268.19;5041256;28;20032;-47
2023/10/08 01:08:17;;;;;;;;;;;;;;;15.01;88.04;102261.13;5041094;28;20034;-47
2023/10/08 01:10:46;;;;;;;12.13;5.00;;;;;;;14.85;89.06;102253.34;5041010;28;20341;-46
2023/10/08 01:13:16;;;;;;;10.20;5.05;;;;;;;14.82;89.46;102249.06;5038786;28;20038;-48
2023/10/08 01:15:44;;;;;;;12.48;5.43;;;;;;;14.80;89.03;102238.50;5045737;28;20030;-50
2023/10/08 01:18:17;;;;;;;10.38;5.20;;;;;;;14.72;90.31;102237.31;5040458;28;20072;-48
2023/10/08 01:20:52;;;;;;;13.30;5.40;;;;;;;14.68;90.61;102247.38;5042669;28;20448;-50
2023/10/08 01:23:20;;;;;;;8.68;4.95;;;;;;;14.64;90.68;102247.72;5039456;28;20425;-47
2023/10/08 01:25:57;;;;;;;12.27;5.57;;;;;;;14.64;91.06;102242.38;5040433;28;20029;-47
2023/10/08 01:28:26;;;;;;;10.10;5.32;;;;;;;14.58;90.83;102244.47;5041029;28;20119;-48
2023/10/08 01:31:00;;;;;;;10.13;4.90;;;;;;;14.56;90.70;102233.06;5040282;28;20087;-47
2023/10/08 01:33:28;;;;;;;13.93;5.25;;;;;;;14.55;91.47;102233.16;5043541;28;20021;-47
2023/10/08 01:35:54;;;;;;;11.50;5.35;;;;;;;14.52;91.57;102233.38;5036946;28;20423;-47
2023/10/08 01:38:23;;;;;;;10.75;5.18;;;;;;;14.48;91.75;102230.06;5042926;28;20040;-47
2023/10/08 01:40:52;;;;;;;12.15;5.80;;;;;;;14.47;91.50;102233.72;5037355;28;20403;-47
2023/10/08 01:43:19;;;;;;;11.00;5.38;;;;;;;14.43;91.85;102216.19;5039021;28;20144;-47
2023/10/08 01:45:48;;;;;;;10.48;5.00;;;;;;;14.40;92.00;102224.41;5042558;28;20025;-47
2023/10/08 01:48:13;;;;;;;;;;;;;;;14.49;90.71;102231.78;5039582;28;20029;-46
2023/10/08 01:50:39;;;;;;;9.85;6.10;;;;;;;14.35;92.21;102230.06;5036287;28;19986;-46
2023/10/08 01:53:07;;;;;;;9.95;5.90;;;;;;;14.34;92.43;102238.19;5038877;28;20024;-47
2023/10/08 01:55:44;;;;;;;13.60;5.63;;;;;;;14.29;92.85;102227.84;5039836;28;20025;-47
2023/10/08 01:58:12;;;;;;;11.68;6.05;;;;;;;14.28;92.85;102244.84;5039961;28;20033;-47
2023/10/08 02:00:42;;;;;;;13.02;5.93;;;;;;;14.24;93.02;102251.38;5041316;28;20029;-47
2023/10/08 02:03:07;;;;;;;13.63;6.50;;;;;;;14.24;92.95;102257.56;5037644;28;20053;-47
2023/10/08 02:05:34;;;;;;;15.35;5.85;;;;;;;14.28;93.31;102268.03;5042080;28;20534;-48
2023/10/08 02:07:59;;;;;;;12.93;5.78;;;;;;;14.24;94.50;102254.06;5039891;28;20028;-47
2023/10/08 02:10:25;;;;;;;12.73;6.03;;;;;;;14.24;93.13;102262.91;5041925;28;20045;-47
2023/10/08 02:12:50;;;;;;;11.60;5.80;;;;;;;14.25;93.62;102261.09;5036176;28;20109;-47
2023/10/08 02:15:15;;;;;;;10.82;5.70;;;;;;;14.22;93.60;102259.50;5038386;28;20052;-47
2023/10/08 02:17:43;;;;;;;12.68;5.15;;;;;;;14.23;93.56;102253.16;5036871;28;20025;-47
2023/10/08 02:20:09;;;;;;;9.35;5.55;;;;;;;14.21;93.73;102249.75;5038994;28;20451;-47
2023/10/08 02:22:34;;;;;;;12.98;5.82;;;;;;;14.21;94.37;102260.44;5039491;28;20029;-48
2023/10/08 02:25:03;;;;;;;9.87;5.97;;;;;;;14.20;94.08;102257.88;5040027;28;20459;-47
2023/10/08 02:27:28;;;;;;;12.65;5.50;;;;;;;14.20;94.65;102250.72;5038659;28;20268;-48
2023/10/08 02:29:54;;;;;;;12.57;5.80;;;;;;;14.18;94.97;102257.13;5037661;28;20025;-47
2023/10/08 02:32:22;;;;;;;13.55;6.18;;;;;;;14.19;94.12;102259.69;5039875;28;20052;-48
2023/10/08 02:34:47;;;;;;;10.15;5.95;;;;;;;14.17;94.20;102248.28;5037544;28;20036;-48
2023/10/08 02:37:14;;;;;;;13.63;5.72;;;;;;;14.16;94.27;102257.25;5041358;28;20029;-47
2023/10/08 02:39:40;;;;;;;10.00;5.45;;;;;;;14.17;94.45;102256.28;5039336;28;20030;-47
2023/10/08 02:42:10;;;;;;;12.00;5.82;;;;;;;14.16;94.41;102265.25;5039927;28;20032;-47
2023/10/08 02:44:41;;;;;;;14.45;5.95;;;;;;;14.18;95.05;102267.81;5037916;28;20025;-47
2023/10/08 02:47:08;;;;;;;11.57;5.88;;;;;;;14.18;94.91;102271.34;5041955;28;20392;-48
2023/10/08 02:49:34;;;;;;;10.85;5.57;;;;;;;14.16;94.93;102281.28;5041154;28;20054;-47
2023/10/08 02:52:00;;;;;;;11.30;5.97;;;;;;;14.14;95.33;102280.53;5036720;28;20491;-47
2023/10/08 02:54:35;;;;;;;10.57;5.72;;;;;;;14.13;95.60;102275.31;5038094;28;20123;-47
2023/10/08 02:57:04;;;;;;;10.35;5.43;;;;;;;14.14;95.72;102275.19;5037910;28;20036;-47
2023/10/08 02:59:39;;;;;;;14.13;5.82;;;;;;;14.15;95.67;102278.72;5040694;28;20387;-48
2023/10/08 03:02:18;;;;;;;9.82;5.43;;;;;;;14.14;95.29;102277.00;5039784;28;20452;-48
2023/10/08 03:04:45;;;;;;;;;;;;;;;14.23;94.03;102271.88;5040948;28;20544;-47
2023/10/08 03:07:31;;;;;;;9.98;5.63;;;;;;;14.15;95.56;102273.38;5039199;28;19977;-47
2023/10/08 03:10:03;;;;;;;16.77;6.90;;;;;;;14.15;95.95;102276.91;5035924;28;20045;-47
2023/10/08 03:12:32;;;;;;;13.75;5.88;;;;;;;14.14;96.16;102268.97;5038753;28;20017;-47
2023/10/08 03:15:27;;;;;;;11.18;5.88;;;;;;;14.15;96.44;102279.56;5034490;28;20088;-47
2023/10/08 03:17:53;;;;;;;15.82;5.97;;;;;;;14.14;95.53;102279.66;5039550;28;20518;-47
2023/10/08 03:20:38;;;;;;;12.82;5.68;;;;;;;14.12;96.33;102286.94;5041709;28;20140;-47
2023/10/08 03:23:56;;;;;;;14.43;6.18;;;;;;;14.15;96.39;102294.75;5037946;28;20033;-47
2023/10/08 03:26:01;;;;;;;12.77;5.93;;;;;;;14.14;96.46;102296.56;5042539;28;20030;-46
2023/10/08 03:28:34;;;;;;;11.63;5.70;;;;;;;14.14;96.85;102295.69;5039401;28;20143;-47
2023/10/08 03:31:03;;;;;;;13.85;6.20;;;;;;;14.13;96.78;102294.84;5038971;28;20021;-47
2023/10/08 03:33:37;;;;;;;12.18;5.75;;;;;;;14.05;96.68;102291.84;5041028;28;20111;-47
2023/10/08 03:36:22;;;;;;;14.48;6.22;;;;;;;14.09;96.51;102290.69;5036216;28;20499;-47
2023/10/08 03:38:51;;;;;;;15.68;6.68;;;;;;;14.11;96.71;102299.47;5039254;28;20025;-47
2023/10/08 03:41:30;;;;;;;11.77;5.50;;;;;;;14.12;96.72;102298.50;5033224;28;20026;-47
2023/10/08 03:44:17;;;;;;;9.90;5.72;;;;;;;14.10;96.76;102305.75;5042445;28;20022;-47
2023/10/08 03:46:46;;;;;;;14.10;6.57;;;;;;;14.09;96.83;102293.38;5041420;28;20037;-48
2023/10/08 03:49:24;;;;;;;13.35;6.82;;;;;;;14.11;96.87;102301.28;5043015;28;20035;-47
2023/10/08 03:51:57;;;;;;;21.03;6.13;;;;;;;14.09;96.77;102300.50;5039179;28;20463;-47
2023/10/08 03:54:35;;;;;;;11.73;5.80;;;;;;;14.09;96.81;102296.03;5043533;28;20045;-46
2023/10/08 03:57:00;;;;;;;14.88;6.50;;;;;;;14.09;96.59;102292.50;5039149;28;20032;-47
2023/10/08 03:59:33;;;;;;;15.02;5.78;;;;;;;14.07;96.34;102301.50;5044208;28;20026;-47
2023/10/08 04:02:23;;;;;;;11.73;6.30;;;;;;;14.05;96.80;102303.41;5038910;28;20053;-47
2023/10/08 04:04:49;;;;;;;10.65;5.68;;;;;;;14.05;96.24;102302.53;5045507;28;20029;-47
2023/10/08 04:07:28;;;;;;;12.77;5.45;;;;;;;14.04;96.77;102299.03;5040090;28;20032;-47
2023/10/08 04:12:47;;;;;;;12.60;5.88;;;;;;;14.01;96.29;102293.03;5040586;28;20051;-47
2023/10/08 04:15:16;;;;;;;9.63;5.72;;;;;;;14.03;96.60;102296.44;5042312;28;20104;-47
2023/10/08 04:17:44;;;;;;;11.70;5.82;;;;;;;14.00;96.62;102297.50;5042360;28;20100;-47
2023/10/08 04:20:32;;;;;;;13.27;6.05;;;;;;;13.99;97.02;102300.28;5040198;28;20053;-47
2023/10/08 04:22:59;;;;;;;9.63;5.22;;;;;;;13.98;96.91;102304.78;5043890;28;20064;-47
2023/10/08 04:25:29;;;;;;;13.57;5.78;;;;;;;13.96;97.55;102308.53;5041547;28;20025;-47
2023/10/08 04:28:00;;;;;;;16.88;5.82;;;;;;;13.97;96.27;102318.22;5041306;28;20530;-47
2023/10/08 04:30:33;;;;;;;10.68;5.53;;;;;;;13.98;97.38;102326.13;5040358;28;20109;-47
2023/10/08 04:33:12;;;;;;;11.88;5.13;;;;;;;13.98;97.79;102331.47;5041053;28;20392;-48
2023/10/08 04:35:55;;;;;;;14.65;5.90;;;;;;;13.97;96.90;102323.56;5040752;28;20029;-46
2023/10/08 04:38:22;;;;;;;11.95;5.43;;;;;;;13.97;97.11;102323.56;5044615;28;20034;-47
2023/10/08 04:40:51;;;;;;;12.00;5.53;;;;;;;13.95;97.68;102322.81;5038148;28;20032;-47
2023/10/08 04:43:24;;;;;;;13.85;6.28;;;;;;;13.93;97.81;102320.25;5043177;28;20025;-47
2023/10/08 04:45:51;;;;;;;13.40;6.07;;;;;;;13.92;97.90;102323.88;5041231;28;20120;-47
2023/10/08 04:48:20;;;;;;;14.32;6.00;;;;;;;13.88;98.32;102325.06;5042085;28;20029;-47
2023/10/08 04:51:01;;;;;;;13.77;5.63;;;;;;;13.88;98.67;102323.22;5039030;28;20022;-47
2023/10/08 04:53:40;;;;;;;14.38;5.88;;;;;;;13.86;98.86;102338.50;5044220;28;20037;-47
2023/10/08 04:56:17;;;;;;;12.07;5.97;;;;;;;13.84;98.75;102340.44;5044611;28;20039;-47
2023/10/08 04:58:47;;;;;;;10.85;5.65;;;;;;;13.84;98.75;102339.59;5039948;28;20091;-47
2023/10/08 05:01:17;;;;;;;13.73;6.00;;;;;;;13.77;98.72;102336.47;5042387;28;20082;-47
2023/10/08 05:04:23;;;;;;;15.27;6.32;;;;;;;13.80;99.05;102332.72;5038562;28;20075;-48
2023/10/08 05:06:50;;;;;;;11.55;6.68;;;;;;;13.79;99.33;102334.53;5039199;28;20091;-47
2023/10/08 05:17:56;;;;;;;10.48;5.22;;;;;;;13.71;99.96;102352.88;5043711;28;20503;-47
2023/10/08 05:20:19;;;;;;;15.68;6.25;;;;;;;13.68;100.00;102358.41;5035862;28;20053;-47
2023/10/08 05:22:44;;;;;;;13.90;5.90;;;;;;;13.66;100.00;102355.84;5043062;28;20096;-48
2023/10/08 05:30:16;;;;;;;12.98;6.07;;;;;;;13.61;100.00;102359.78;5039833;28;20242;-47
2023/10/08 05:33:05;;;;;;;15.65;6.47;;;;;;;13.62;100.00;102362.38;5038453;28;20098;-48
2023/10/08 05:38:34;;;;;;;14.77;6.35;;;;;;;13.58;100.00;102374.19;5037366;28;20049;-47
2023/10/08 05:49:02;;;;;;;14.77;6.65;;;;;;;13.56;100.00;102393.94;5042353;28;20038;-45
2023/10/08 05:59:52;;;;;;;14.32;6.60;;;;;;;13.51;100.00;102363.03;5039471;28;20091;-46
2023/10/08 06:02:29;;;;;;;12.60;6.90;;;;;;;13.48;100.00;102344.56;5041447;28;20486;-47
2023/10/08 06:08:14;;;;;;;13.93;6.03;;;;;;;13.49;100.00;102340.94;5039677;28;20036;-47
2023/10/08 06:13:16;;;;;;;15.88;7.10;;;;;;;13.40;100.00;102330.00;5038177;28;20033;-46
2023/10/08 06:18:29;;;;;;;14.98;6.35;;;;;;;13.37;100.00;102333.72;5038406;28;20410;-47
2023/10/08 06:20:55;;;;;;;14.23;6.32;;;;;;;13.37;100.00;102346.22;5036123;28;20046;-46
2023/10/08 06:23:25;;;;;;;13.88;6.75;;;;;;;13.32;100.00;102338.50;5039033;28;20076;-47
2023/10/08 06:28:34;;;;;;;12.23;6.80;;;;;;;13.33;100.00;102358.91;5039769;28;20124;-46
2023/10/08 06:31:01;;;;;;;14.68;7.35;;;;;;;13.33;100.00;102364.22;5039670;28;20022;-46
2023/10/08 06:33:37;;;;;;;14.18;6.68;;;;;;;13.35;100.00;102375.66;5037600;28;20041;-46
2023/10/08 06:36:05;;;;;;;15.82;7.10;;;;;;;13.37;100.00;102381.75;5035137;28;20389;-46
2023/10/08 06:38:32;;;;;;;13.68;6.95;;;;;;;13.39;100.00;102368.31;5036758;28;20041;-47
2023/10/08 06:43:43;;;;;;;13.55;6.57;;;;;;;13.41;100.00;102367.28;5038803;28;20104;-47
2023/10/08 06:46:12;;;;;;;15.77;6.78;;;;;;;13.42;100.00;102365.44;5038065;28;20167;-46
2023/10/08 06:48:41;;;;;;;13.10;6.57;;;;;;;13.43;100.00;102373.34;5038375;28;20032;-46
2023/10/08 06:51:12;;;;;;;12.88;7.18;;;;;;;13.45;100.00;102371.44;5039052;28;20476;-46
2023/10/08 06:53:41;;;;;;;15.30;6.50;;;;;;;13.45;100.00;102378.59;5033020;28;20030;-46
2023/10/08 06:56:09;;;;;;;13.93;7.15;;;;;;;13.47;100.00;102379.34;5039109;28;20025;-46
2023/10/08 06:58:35;;;;;;;14.97;6.77;;;;;;;13.49;100.00;102378.31;5036271;28;20040;-46
2023/10/08 07:01:08;;;;;;;12.48;7.03;;;;;;;13.53;100.00;102386.13;5035875;28;20300;-47
2023/10/08 07:03:35;;;;;;;14.13;7.45;;;;;;;13.54;100.00;102387.81;5037508;28;20048;-47
2023/10/08 07:06:02;;;;;;;17.75;7.88;;;;;;;13.57;100.00;102396.47;5029806;28;20029;-46
2023/10/08 07:08:32;;;;;;;17.40;7.20;;;;;;;13.59;100.00;102402.59;5032700;28;20051;-47
2023/10/08 07:10:59;;;;;;;14.65;7.38;;;;;;;13.60;100.00;102400.78;5040172;28;20040;-47
2023/10/08 07:13:25;;;;;;;12.85;7.55;;;;;;;13.63;100.00;102397.91;5035354;28;21106;-46
2023/10/08 07:15:52;;;;;;;14.75;7.50;;;;;;;13.68;100.00;102414.50;5038732;28;20021;-46
2023/10/08 07:18:36;;;;;;;15.75;7.32;;;;;;;13.72;100.00;102415.16;5037315;28;20079;-49
2023/10/08 07:21:04;;;;;;;17.50;8.05;;;;;;;13.74;100.00;102414.09;5037984;28;20503;-46
2023/10/08 07:23:34;;;;;;;15.30;7.90;;;;;;;13.80;100.00;102410.16;5037967;28;20137;-48
2023/10/08 07:26:17;;;;;;;15.02;7.68;;;;;;;13.86;100.00;102417.78;5038937;28;20324;-47
2023/10/08 07:28:43;;;;;;;17.27;8.38;;;;;;;13.89;100.00;102417.59;5042860;28;20529;-46
2023/10/08 07:31:16;;;;;;;23.10;9.57;;;;;;;13.96;100.00;102413.53;5040609;28;20045;-45
2023/10/08 07:33:43;;;;;;;16.70;8.13;;;;;;;14.02;100.00;102415.81;5038738;28;20037;-47
2023/10/08 07:36:14;;;;;;;17.45;8.00;;;;;;;14.07;100.00;102420.84;5039911;28;20128;-46
2023/10/08 07:38:42;;;;;;;16.02;7.97;;;;;;;14.14;100.00;102424.84;5039227;28;20097;-46
2023/10/08 07:41:14;;;;;;;15.50;8.00;;;;;;;14.21;100.00;102423.47;5044033;28;20029;-46
2023/10/08 07:43:42;;;;;;;18.05;8.10;;;;;;;14.31;100.00;102430.88;5041383;28;20025;-46
2023/10/08 07:46:07;;;;;;;15.07;8.85;;;;;;;14.34;100.00;102415.47;5036806;28;20025;-47
2023/10/08 07:48:33;;;;;;;16.98;8.70;;;;;;;14.46;100.00;102419.13;5041520;28;20036;-46
2023/10/08 07:50:58;;;;;;;20.45;9.38;;;;;;;14.55;100.00;102415.81;5037520;28;20067;-48
2023/10/08 07:53:24;;;;;;;17.02;8.55;;;;;;;14.67;100.00;102422.19;5040715;28;20056;-46
2023/10/08 07:55:51;;;;;;;16.98;9.18;;;;;;;14.73;100.00;102420.91;5039969;28;20025;-47
2023/10/08 07:58:17;;;;;;;19.10;9.60;;;;;;;14.84;100.00;102412.13;5040712;28;20379;-46
2023/10/08 08:00:51;;;;;;;17.50;9.40;;;;;;;14.97;100.00;102424.56;5039556;28;20044;-47
2023/10/08 08:03:18;;;;;;;23.30;9.88;;;;;;;15.09;100.00;102428.19;5038027;28;20029;-46
2023/10/08 08:05:44;;;;;;;23.48;10.52;;;;;;;15.19;100.00;102425.72;5040798;28;20021;-46
2023/10/08 08:08:09;;;;;;;22.35;9.30;;;;;;;15.29;100.00;102432.13;5041566;28;20262;-46
2023/10/08 08:10:38;;;;;;;22.48;10.93;;;;;;;15.39;100.00;102436.81;5036845;28;20498;-46
2023/10/08 08:13:06;;;;;;;15.40;9.38;;;;;;;15.49;100.00;102454.78;5038036;28;20036;-47
2023/10/08 08:15:33;;;;;;;16.77;9.40;;;;;;;15.58;100.00;102452.41;5025159;28;20033;-46
2023/10/08 08:17:58;;;;;;;20.15;9.10;;;;;;;15.63;100.00;102461.81;5028027;28;20025;-46
2023/10/08 08:20:34;;;;;;;22.55;10.25;;;;;;;15.72;100.00;102465.66;5033095;28;20053;-47
2023/10/08 08:23:06;;;;;;;21.52;9.52;;;;;;;15.82;100.00;102464.06;5040631;28;20053;-48
2023/10/08 08:25:45;;;;;;;18.15;9.75;;;;;;;15.85;100.00;102469.19;5038554;28;20479;-46
2023/10/08 08:28:20;;;;;;;21.65;10.13;;;;;;;15.93;100.00;102479.34;5039126;28;20112;-46
2023/10/08 08:30:48;;;;;;;22.05;9.68;;;;;;;15.96;100.00;102473.75;5038827;28;20140;-47
2023/10/08 08:33:21;;;;;;;20.98;10.15;;;;;;;16.08;100.00;102480.88;5037274;28;20041;-48
2023/10/08 08:35:47;;;;;;;20.25;9.90;;;;;;;16.15;100.00;102493.84;5039599;28;20043;-48
2023/10/08 08:38:12;;;;;;;16.50;9.73;;;;;;;16.18;100.00;102491.78;5040943;28;20112;-48
2023/10/08 08:40:39;;;;;;;20.45;10.73;;;;;;;16.26;100.00;102493.91;5039584;28;20028;-47
2023/10/08 08:43:05;;;;;;;17.05;10.48;;;;;;;16.25;100.00;102501.09;5041058;28;20084;-47
2023/10/08 08:45:33;;;;;;;18.27;9.40;;;;;;;16.27;100.00;102504.50;5042577;28;20029;-47
2023/10/08 08:47:59;;;;;;;22.20;11.48;;;;;;;16.31;100.00;102499.78;5037222;28;20491;-48
2023/10/08 08:50:26;;;;;;;30.02;12.50;;;;;;;16.28;100.00;102503.53;5039022;28;20120;-48
2023/10/08 08:52:52;;;;;;;30.90;11.80;;;;;;;16.30;100.00;102495.38;5041398;28;20040;-48
2023/10/08 08:55:18;;;;;;;24.98;12.65;;;;;;;16.32;100.00;102501.50;5035324;28;20036;-48
2023/10/08 08:57:49;;;;;;;28.20;12.68;;;;;;;16.36;100.00;102497.59;5041207;28;20036;-48
2023/10/08 09:00:16;;;;;;;30.25;13.13;;;;;;;16.34;100.00;102488.81;5038793;28;20029;-47
2023/10/08 09:02:44;;;;;;;33.25;12.63;;;;;;;16.48;99.63;102490.44;5038322;28;20094;-47
2023/10/08 09:05:23;;;;;;;25.88;12.30;;;;;;;16.56;99.38;102498.78;5038780;28;20452;-47
2023/10/08 09:08:04;;;;;;;32.25;14.52;;;;;;;16.66;98.38;102490.88;5040417;28;20104;-48
2023/10/08 09:10:36;;;;;;;25.95;12.07;;;;;;;16.68;97.41;102507.72;5037811;28;20040;-48
2023/10/08 09:13:03;;;;;;;25.40;11.77;;;;;;;16.78;97.50;102508.72;5034351;28;20136;-47
2023/10/08 09:15:29;;;;;;;23.92;12.10;;;;;;;16.83;98.69;102508.38;5040411;28;20033;-48
2023/10/08 09:17:55;;;;;;;25.85;11.57;;;;;;;16.97;98.37;102510.00;5036713;28;20092;-47
2023/10/08 09:20:22;;;;;;;31.58;13.38;;;;;;;17.06;96.63;102512.00;5038417;28;20053;-48
2023/10/08 09:23:11;;;;;;;22.75;12.43;;;;;;;17.17;96.34;102509.34;5041131;28;20045;-48
2023/10/08 09:25:48;;;;;;;27.25;12.38;;;;;;;17.25;95.45;102505.19;5039854;28;20032;-50
2023/10/08 09:28:13;;;;;;;29.10;12.98;;;;;;;17.33;94.56;102502.75;5043678;28;20021;-48
2023/10/08 09:30:44;;;;;;;32.35;12.57;;;;;;;17.42;94.82;102510.09;5035301;28;20024;-49
2023/10/08 09:33:12;;;;;;;27.35;13.63;;;;;;;17.51;94.28;102509.34;5041186;28;20029;-50
2023/10/08 09:35:38;;;;;;;28.42;13.77;;;;;;;17.54;94.11;102508.25;5043467;28;20492;-48
2023/10/08 09:38:05;;;;;;;26.48;13.77;;;;;;;17.61;93.12;102517.53;5037911;28;20052;-47
2023/10/08 09:40:30;;;;;;;26.77;13.30;;;;;;;17.66;92.92;102512.63;5036853;28;20025;-47
2023/10/08 09:42:56;;;;;;;28.25;12.93;;;;;;;17.77;93.05;102511.78;5040205;28;20502;-47
2023/10/08 09:45:22;;;;;;;27.88;13.77;;;;;;;17.84;92.85;102518.38;5039275;28;20033;-47
2023/10/08 09:47:54;;;;;;;27.77;14.35;;;;;;;17.87;93.12;102507.41;5037544;28;20480;-49
2023/10/08 09:50:29;;;;;;;32.70;14.90;;;;;;;17.96;92.77;102511.16;5032124;28;20459;-48
2023/10/08 09:53:01;;;;;;;29.88;14.60;;;;;;;18.03;92.96;102504.31;5039996;28;20423;-47
2023/10/08 09:55:28;;;;;;;33.10;14.60;;;;;;;18.02;92.19;102504.41;5033519;28;20487;-48
2023/10/08 09:57:55;;;;;;;32.08;14.45;;;;;;;18.10;92.25;102499.28;5035277;28;20171;-47
2023/10/08 10:00:30;;;;;;;30.70;14.65;;;;;;;18.18;91.99;102498.66;5038629;28;20115;-48
2023/10/08 10:02:58;;;;;;;29.30;14.60;;;;;;;18.20;91.58;102491.31;5039655;28;20031;-47
2023/10/08 10:05:28;;;;;;;29.87;15.17;;;;;;;18.28;91.74;102481.59;5042752;28;20028;-47
2023/10/08 10:07:55;;;;;;;30.75;15.32;;;;;;;18.33;91.08;102475.00;5034777;28;20288;-47
2023/10/08 10:10:31;;;;;;;30.48;15.23;;;;;;;18.48;91.01;102487.16;5032869;28;20036;-47
2023/10/08 10:12:59;;;;;;;25.98;13.93;;;;;;;18.58;90.38;102476.47;5034213;28;20043;-47
2023/10/08 10:15:24;;;;;;;25.33;14.40;;;;;;;18.69;90.80;102479.09;5031903;28;20037;-48
2023/10/08 10:17:51;;;;;;;25.35;14.68;;;;;;;18.86;89.68;102478.53;5037886;28;20052;-49
2023/10/08 10:20:16;;;;;;;30.40;14.18;;;;;;;18.85;88.33;102481.34;5034576;28;20056;-48
2023/10/08 10:22:43;;;;;;;25.30;14.48;;;;;;;18.95;88.29;102487.69;5035265;28;20029;-48
2023/10/08 10:25:16;;;;;;;27.00;13.18;;;;;;;19.07;88.05;102492.97;5035946;28;20048;-49
2023/10/08 10:28:06;;;;;;;24.05;13.82;;;;;;;19.18;88.60;102503.66;5031628;28;20029;-48
2023/10/08 10:30:32;;;;;;;24.77;14.50;;;;;;;19.26;87.04;102497.63;5031749;28;20102;-48
2023/10/08 10:33:00;;;;;;;24.88;13.77;;;;;;;19.39;87.32;102484.78;5031766;28;20128;-48
2023/10/08 10:35:27;;;;;;;26.20;13.68;;;;;;;19.54;87.27;102485.25;5033377;28;20042;-48
2023/10/08 10:37:55;;;;;;;24.38;13.88;;;;;;;19.57;85.50;102477.75;5035014;28;21572;-47
2023/10/08 10:40:56;;;;;;;26.20;14.60;;;;;;;19.69;85.27;102493.81;5034235;28;20029;-48
2023/10/08 10:43:10;;;;;;;27.38;15.40;;;;;;;19.74;84.36;102499.66;5036039;28;20140;-47
2023/10/08 10:45:43;;;;;;;34.28;15.77;;;;;;;19.82;86.07;102501.66;5036399;28;20021;-47
2023/10/08 10:48:21;;;;;;;31.23;16.13;;;;;;;19.75;85.67;102506.75;5034761;28;20041;-47
2023/10/08 10:53:44;;;;;;;28.80;15.10;;;;;;;19.87;86.08;102508.38;5041265;28;20068;-48
2023/10/08 10:56:18;;;;;;;;;;;;;;;20.00;87.89;102499.16;5040765;28;20041;-47
2023/10/08 10:58:45;;;;;;;32.70;16.42;;;;;;;19.83;86.46;102493.44;5037009;28;19932;-48
2023/10/08 11:01:23;;;;;;;29.80;14.98;;;;;;;19.74;86.34;102500.50;5039647;28;20033;-46
2023/10/08 11:03:51;;;;;;;29.67;15.30;;;;;;;19.60;85.72;102499.03;5037675;28;20044;-47
2023/10/08 11:06:22;;;;;;;29.87;15.70;;;;;;;19.55;86.58;102490.50;5041059;28;20364;-47
2023/10/08 11:08:52;;;;;;;32.60;15.05;;;;;;;19.52;86.77;102492.63;5035833;28;20291;-48
2023/10/08 11:11:28;;;;;;;35.97;16.52;;;;;;;19.49;87.76;102493.75;5042267;28;20376;-47
2023/10/08 11:14:03;;;;;;;32.78;14.88;;;;;;;19.45;88.02;102483.38;5041723;28;20162;-48
2023/10/08 11:16:31;;;;;;;37.20;15.23;;;;;;;19.51;87.93;102497.16;5038218;28;20041;-48
2023/10/08 11:19:00;;;;;;;26.27;15.00;;;;;;;19.56;88.51;102494.06;5042130;28;20038;-47
2023/10/08 11:21:31;;;;;;;32.92;14.13;;;;;;;19.45;86.96;102507.63;5037844;28;20076;-47
2023/10/08 11:23:58;;;;;;;35.63;14.07;;;;;;;19.40;87.50;102506.19;5037852;28;20033;-47
2023/10/08 11:26:35;;;;;;;36.45;14.07;;;;;;;19.35;87.48;102510.25;5037055;28;20017;-48
2023/10/08 11:29:03;;;;;;;32.17;14.20;;;;;;;19.28;87.18;102503.72;5037403;28;20033;-47
2023/10/08 11:31:29;;;;;;;35.95;13.80;;;;;;;19.17;88.08;102502.81;5034402;28;20434;-47
2023/10/08 11:34:08;;;;;;;33.22;13.45;;;;;;;19.14;88.63;102497.69;5040263;28;20117;-47
2023/10/08 11:36:48;;;;;;;30.13;13.68;;;;;;;19.11;nan;102494.41;5040521;28;20036;-47
2023/10/08 11:39:21;;;;;;;30.35;13.85;;;;;;;19.06;88.25;102496.66;5036705;28;20068;-49
2023/10/08 11:42:06;;;;;;;24.50;13.25;;;;;;;19.06;88.79;102486.72;5041833;28;20115;-48
2023/10/08 11:44:35;;;;;;;25.10;13.52;;;;;;;19.00;88.15;102489.94;5038551;28;20124;-48
2023/10/08 11:47:04;;;;;;;26.48;13.73;;;;;;;18.99;88.31;102483.72;5036225;28;20029;-48
2023/10/08 11:49:36;;;;;;;22.27;13.27;;;;;;;19.03;89.05;102484.31;5037641;28;20034;-48
2023/10/08 11:52:02;;;;;;;29.67;13.50;;;;;;;19.08;88.52;102483.91;5042892;28;20052;-47
2023/10/08 11:54:27;;;;;;;26.50;13.43;;;;;;;19.06;88.39;102478.66;5037172;28;20526;-47
2023/10/08 11:56:52;;;;;;;22.50;13.68;;;;;;;19.14;89.31;102484.22;5036220;28;20065;-47
2023/10/08 11:59:18;;;;;;;22.30;12.82;;;;;;;19.18;88.60;102480.25;5037191;28;20104;-47
2023/10/08 12:01:44;;;;;;;24.67;13.90;;;;;;;19.24;88.59;102478.88;5032742;28;20041;-47
2023/10/08 12:04:12;;;;;;;27.77;13.23;;;;;;;19.20;87.65;102472.94;5038933;28;20064;-47
2023/10/08 12:06:46;;;;;;;22.27;13.88;;;;;;;19.26;87.96;102465.28;5037578;28;20040;-48
2023/10/08 12:09:12;;;;;;;21.05;13.75;;;;;;;19.31;88.04;102463.88;5035005;28;20045;-47
2023/10/08 12:11:39;;;;;;;27.65;14.40;;;;;;;19.32;88.00;102459.38;5034019;28;20029;-47
2023/10/08 12:14:05;;;;;;;23.88;13.70;;;;;;;19.30;86.66;102459.50;5038467;28;20022;-48
2023/10/08 12:16:35;;;;;;;25.40;13.20;;;;;;;19.37;87.19;102455.28;5039684;28;20032;-48
2023/10/08 12:19:00;;;;;;;25.50;13.00;;;;;;;19.35;86.33;102457.25;5042290;28;20036;-47
2023/10/08 12:21:29;;;;;;;26.45;13.57;;;;;;;19.34;86.61;102463.63;5042948;28;20040;-47
2023/10/08 12:23:54;;;;;;;;;;;;;;;19.55;87.92;102457.28;5043548;28;20363;-48